Terminal Aerodrome Forecast
Issued by NWS

Home | Current Version | Previous Version | Text Only | Print | Product List | Glossary On
Versions: 1 2 3 4 5 6 7 8 9 10 11 12 13 14
000
FTUS44 KTSA 281720
TAFBVO
TAF
KBVO 281720Z 2818/2918 04007KT P6SM SCT250
     FM291200 06009KT P6SM OVC050
     FM291500 09011G18KT P6SM OVC025 PROB30 2915/2918 TS OVC025CB=

USA.gov is the U.S. government's official web portal to all federal, state and local government web resources and services.